sensor_id;sensor_type;location;lat;lon;timestamp;temperature;humidity
9824;DHT22;4951;50.778;7.196;2023-05-10T00:09:03;12.50;99.90
9824;DHT22;4951;50.778;7.196;2023-05-10T00:16:49;12.50;99.90
9824;DHT22;4951;50.778;7.196;2023-05-10T00:19:48;12.50;99.90
9824;DHT22;4951;50.778;7.196;2023-05-10T00:35:21;12.50;99.90
9824;DHT22;4951;50.778;7.196;2023-05-10T00:39:49;12.50;99.90
9824;DHT22;4951;50.778;7.196;2023-05-10T00:51:55;12.50;99.90
9824;DHT22;4951;50.778;7.196;2023-05-10T00:54:29;12.50;99.90
9824;DHT22;4951;50.778;7.196;2023-05-10T00:58:14;12.50;99.90
9824;DHT22;4951;50.778;7.196;2023-05-10T01:32:24;12.60;99.90
9824;DHT22;4951;50.778;7.196;2023-05-10T01:36:26;12.60;99.90
9824;DHT22;4951;50.778;7.196;2023-05-10T01:43:45;12.60;99.90
9824;DHT22;4951;50.778;7.196;2023-05-10T01:48:27;12.70;99.90
9824;DHT22;4951;50.778;7.196;2023-05-10T01:53:16;12.70;99.90
9824;DHT22;4951;50.778;7.196;2023-05-10T01:55:32;12.70;99.90
9824;DHT22;4951;50.778;7.196;2023-05-10T02:03:31;12.70;99.90
9824;DHT22;4951;50.778;7.196;2023-05-10T02:07:13;12.70;99.90
9824;DHT22;4951;50.778;7.196;2023-05-10T02:10:49;12.70;99.90
9824;DHT22;4951;50.778;7.196;2023-05-10T02:13:42;12.70;99.90
9824;DHT22;4951;50.778;7.196;2023-05-10T02:17:03;12.70;99.90
9824;DHT22;4951;50.778;7.196;2023-05-10T02:21:19;12.70;99.90
9824;DHT22;4951;50.778;7.196;2023-05-10T02:24:38;12.60;99.90
9824;DHT22;4951;50.778;7.196;2023-05-10T02:31:14;12.60;99.90
9824;DHT22;4951;50.778;7.196;2023-05-10T02:56:56;12.60;99.90
9824;DHT22;4951;50.778;7.196;2023-05-10T03:00:19;12.60;99.90
9824;DHT22;4951;50.778;7.196;2023-05-10T03:03:35;12.60;99.90
9824;DHT22;4951;50.778;7.196;2023-05-10T03:08:00;12.60;99.90
9824;DHT22;4951;50.778;7.196;2023-05-10T03:10:55;12.60;99.90
9824;DHT22;4951;50.778;7.196;2023-05-10T03:20:35;12.60;99.90
9824;DHT22;4951;50.778;7.196;2023-05-10T03:22:30;12.50;99.90
9824;DHT22;4951;50.778;7.196;2023-05-10T03:34:42;12.60;99.90
9824;DHT22;4951;50.778;7.196;2023-05-10T03:50:35;12.60;99.90
9824;DHT22;4951;50.778;7.196;2023-05-10T03:57:57;12.70;99.90
9824;DHT22;4951;50.778;7.196;2023-05-10T04:02:06;12.70;99.90
9824;DHT22;4951;50.778;7.196;2023-05-10T04:05:02;12.70;99.90
9824;DHT22;4951;50.778;7.196;2023-05-10T04:21:59;12.70;99.90
9824;DHT22;4951;50.778;7.196;2023-05-10T04:29:28;12.70;99.90
9824;DHT22;4951;50.778;7.196;2023-05-10T04:32:54;12.70;99.90
9824;DHT22;4951;50.778;7.196;2023-05-10T04:38:02;12.80;99.90
9824;DHT22;4951;50.778;7.196;2023-05-10T05:07:41;12.90;99.90
9824;DHT22;4951;50.778;7.196;2023-05-10T05:11:01;12.90;99.90
9824;DHT22;4951;50.778;7.196;2023-05-10T05:14:18;12.90;99.90
9824;DHT22;4951;50.778;7.196;2023-05-10T05:20:36;12.90;99.90
9824;DHT22;4951;50.778;7.196;2023-05-10T05:24:11;13.00;99.90
9824;DHT22;4951;50.778;7.196;2023-05-10T05:27:12;13.00;99.90
9824;DHT22;4951;50.778;7.196;2023-05-10T05:30:38;13.00;99.90
9824;DHT22;4951;50.778;7.196;2023-05-10T05:34:39;13.10;99.90
9824;DHT22;4951;50.778;7.196;2023-05-10T05:37:44;13.10;99.90
9824;DHT22;4951;50.778;7.196;2023-05-10T05:40:56;13.10;99.90
9824;DHT22;4951;50.778;7.196;2023-05-10T05:44:04;13.20;99.90
9824;DHT22;4951;50.778;7.196;2023-05-10T05:51:00;13.30;99.90
9824;DHT22;4951;50.778;7.196;2023-05-10T05:55:49;13.30;99.90
9824;DHT22;4951;50.778;7.196;2023-05-10T05:57:06;13.40;99.90
9824;DHT22;4951;50.778;7.196;2023-05-10T06:00:04;13.40;99.90
9824;DHT22;4951;50.778;7.196;2023-05-10T06:02:52;13.40;99.90
9824;DHT22;4951;50.778;7.196;2023-05-10T06:05:28;13.50;99.90
9824;DHT22;4951;50.778;7.196;2023-05-10T06:08:25;13.50;99.90
9824;DHT22;4951;50.778;7.196;2023-05-10T06:11:33;13.60;99.90
9824;DHT22;4951;50.778;7.196;2023-05-10T06:17:59;13.70;99.90
9824;DHT22;4951;50.778;7.196;2023-05-10T06:20:44;13.70;99.90
9824;DHT22;4951;50.778;7.196;2023-05-10T06:23:19;13.70;99.90
9824;DHT22;4951;50.778;7.196;2023-05-10T06:26:43;13.80;99.90
9824;DHT22;4951;50.778;7.196;2023-05-10T06:30:18;13.70;99.90
9824;DHT22;4951;50.778;7.196;2023-05-10T06:33:27;13.80;99.90
9824;DHT22;4951;50.778;7.196;2023-05-10T06:39:47;14.00;99.90
9824;DHT22;4951;50.778;7.196;2023-05-10T06:43:04;14.10;99.90
9824;DHT22;4951;50.778;7.196;2023-05-10T06:45:59;14.10;99.90
9824;DHT22;4951;50.778;7.196;2023-05-10T06:48:35;14.10;99.90
9824;DHT22;4951;50.778;7.196;2023-05-10T06:52:32;14.10;99.90
9824;DHT22;4951;50.778;7.196;2023-05-10T06:55:23;14.10;99.90
9824;DHT22;4951;50.778;7.196;2023-05-10T06:58:25;14.00;99.90
9824;DHT22;4951;50.778;7.196;2023-05-10T07:01:21;14.00;99.90
9824;DHT22;4951;50.778;7.196;2023-05-10T07:08:19;13.90;99.90
9824;DHT22;4951;50.778;7.196;2023-05-10T07:11:38;13.80;99.90
9824;DHT22;4951;50.778;7.196;2023-05-10T07:14:42;13.70;99.90
9824;DHT22;4951;50.778;7.196;2023-05-10T07:23:06;13.60;99.90
9824;DHT22;4951;50.778;7.196;2023-05-10T07:24:54;13.60;96.30
9824;DHT22;4951;50.778;7.196;2023-05-10T07:27:53;13.60;91.50
9824;DHT22;4951;50.778;7.196;2023-05-10T07:32:01;13.60;90.30
9824;DHT22;4951;50.778;7.196;2023-05-10T07:34:56;13.60;83.20
9824;DHT22;4951;50.778;7.196;2023-05-10T07:38:11;13.60;79.50
9824;DHT22;4951;50.778;7.196;2023-05-10T07:41:28;13.60;69.60
9824;DHT22;4951;50.778;7.196;2023-05-10T07:44:22;13.70;86.60
9824;DHT22;4951;50.778;7.196;2023-05-10T07:47:04;13.70;97.40
9824;DHT22;4951;50.778;7.196;2023-05-10T07:50:03;13.80;85.60
9824;DHT22;4951;50.778;7.196;2023-05-10T07:52:42;13.80;77.70
9824;DHT22;4951;50.778;7.196;2023-05-10T07:55:23;13.90;57.40
9824;DHT22;4951;50.778;7.196;2023-05-10T07:58:15;13.80;31.90
9824;DHT22;4951;50.778;7.196;2023-05-10T08:00:57;13.90;33.80
9824;DHT22;4951;50.778;7.196;2023-05-10T08:03:42;13.80;41.50
9824;DHT22;4951;50.778;7.196;2023-05-10T08:06:57;13.80;26.40
9824;DHT22;4951;50.778;7.196;2023-05-10T08:10:09;13.80;14.20
9824;DHT22;4951;50.778;7.196;2023-05-10T08:16:39;13.60;27.80
9824;DHT22;4951;50.778;7.196;2023-05-10T08:19:57;13.60;56.20
9824;DHT22;4951;50.778;7.196;2023-05-10T08:23:08;13.70;85.60
9824;DHT22;4951;50.778;7.196;2023-05-10T08:25:51;13.80;96.90
9824;DHT22;4951;50.778;7.196;2023-05-10T08:29:02;13.80;98.00
9824;DHT22;4951;50.778;7.196;2023-05-10T08:32:30;13.90;99.90
9824;DHT22;4951;50.778;7.196;2023-05-10T08:35:41;14.00;99.90
9824;DHT22;4951;50.778;7.196;2023-05-10T08:38:20;14.20;99.90
9824;DHT22;4951;50.778;7.196;2023-05-10T08:44:41;14.40;99.90
9824;DHT22;4951;50.778;7.196;2023-05-10T08:47:39;14.50;99.90
9824;DHT22;4951;50.778;7.196;2023-05-10T08:50:38;14.60;99.90
9824;DHT22;4951;50.778;7.196;2023-05-10T08:54:04;14.70;99.90
9824;DHT22;4951;50.778;7.196;2023-05-10T08:57:45;14.80;99.90
9824;DHT22;4951;50.778;7.196;2023-05-10T09:01:19;15.10;99.90
9824;DHT22;4951;50.778;7.196;2023-05-10T09:04:32;15.30;99.90
9824;DHT22;4951;50.778;7.196;2023-05-10T09:07:05;15.40;99.90
9824;DHT22;4951;50.778;7.196;2023-05-10T09:09:58;15.50;96.70
9824;DHT22;4951;50.778;7.196;2023-05-10T09:13:06;15.50;69.50
9824;DHT22;4951;50.778;7.196;2023-05-10T09:16:40;15.50;28.60
9824;DHT22;4951;50.778;7.196;2023-05-10T09:19:19;15.50;19.00
9824;DHT22;4951;50.778;7.196;2023-05-10T09:26:10;15.30;1.00
9824;DHT22;4951;50.778;7.196;2023-05-10T09:29:04;15.10;1.00
9824;DHT22;4951;50.778;7.196;2023-05-10T09:32:11;14.90;1.00
9824;DHT22;4951;50.778;7.196;2023-05-10T09:35:17;14.70;1.00
9824;DHT22;4951;50.778;7.196;2023-05-10T09:38:03;14.40;1.00
9824;DHT22;4951;50.778;7.196;2023-05-10T09:40:53;14.30;1.00
9824;DHT22;4951;50.778;7.196;2023-05-10T09:44:05;14.20;1.00
9824;DHT22;4951;50.778;7.196;2023-05-10T09:46:40;14.20;19.20
9824;DHT22;4951;50.778;7.196;2023-05-10T09:49:34;14.20;27.50
9824;DHT22;4951;50.778;7.196;2023-05-10T09:52:31;14.20;41.10
9824;DHT22;4951;50.778;7.196;2023-05-10T09:55:38;14.40;74.80
9824;DHT22;4951;50.778;7.196;2023-05-10T09:58:46;14.70;96.50
9824;DHT22;4951;50.778;7.196;2023-05-10T10:05:52;15.30;88.90
9824;DHT22;4951;50.778;7.196;2023-05-10T10:10:23;15.40;1.00
9824;DHT22;4951;50.778;7.196;2023-05-10T10:12:16;15.50;1.00
9824;DHT22;4951;50.778;7.196;2023-05-10T10:15:14;15.50;1.00
9824;DHT22;4951;50.778;7.196;2023-05-10T10:21:52;15.60;1.00
9824;DHT22;4951;50.778;7.196;2023-05-10T10:24:45;15.70;1.00
9824;DHT22;4951;50.778;7.196;2023-05-10T10:27:28;15.80;1.00
9824;DHT22;4951;50.778;7.196;2023-05-10T10:30:18;15.90;1.00
9824;DHT22;4951;50.778;7.196;2023-05-10T10:33:44;16.00;1.00
9824;DHT22;4951;50.778;7.196;2023-05-10T10:36:30;16.20;1.00
9824;DHT22;4951;50.778;7.196;2023-05-10T10:39:21;16.40;1.00
9824;DHT22;4951;50.778;7.196;2023-05-10T10:41:57;16.50;1.00
9824;DHT22;4951;50.778;7.196;2023-05-10T10:44:37;16.50;99.90
9824;DHT22;4951;50.778;7.196;2023-05-10T10:47:32;16.50;99.90
9824;DHT22;4951;50.778;7.196;2023-05-10T10:50:07;16.60;1.00
9824;DHT22;4951;50.778;7.196;2023-05-10T10:52:49;16.70;1.00
9824;DHT22;4951;50.778;7.196;2023-05-10T10:56:08;16.80;1.00
9824;DHT22;4951;50.778;7.196;2023-05-10T10:58:52;16.90;99.90
9824;DHT22;4951;50.778;7.196;2023-05-10T11:01:34;16.80;99.90
9824;DHT22;4951;50.778;7.196;2023-05-10T11:04:26;16.60;99.90
9824;DHT22;4951;50.778;7.196;2023-05-10T11:07:18;16.40;99.90
9824;DHT22;4951;50.778;7.196;2023-05-10T11:10:08;16.30;99.90
9824;DHT22;4951;50.778;7.196;2023-05-10T11:13:08;16.30;99.90
9824;DHT22;4951;50.778;7.196;2023-05-10T11:15:50;16.30;99.90
9824;DHT22;4951;50.778;7.196;2023-05-10T11:22:01;16.60;99.90
9824;DHT22;4951;50.778;7.196;2023-05-10T11:28:22;16.90;99.90
9824;DHT22;4951;50.778;7.196;2023-05-10T11:31:05;16.90;99.90
9824;DHT22;4951;50.778;7.196;2023-05-10T11:34:13;16.90;1.00
9824;DHT22;4951;50.778;7.196;2023-05-10T11:37:27;16.90;82.00
9824;DHT22;4951;50.778;7.196;2023-05-10T11:40:28;17.00;57.80
9824;DHT22;4951;50.778;7.196;2023-05-10T11:43:14;17.20;1.00
9824;DHT22;4951;50.778;7.196;2023-05-10T11:52:54;17.50;99.90
9824;DHT22;4951;50.778;7.196;2023-05-10T11:55:46;17.60;99.90
9824;DHT22;4951;50.778;7.196;2023-05-10T12:02:20;17.70;94.60
9824;DHT22;4951;50.778;7.196;2023-05-10T12:04:58;17.90;1.00
9824;DHT22;4951;50.778;7.196;2023-05-10T12:07:42;18.10;99.90
9824;DHT22;4951;50.778;7.196;2023-05-10T12:24:20;18.60;99.90
9824;DHT22;4951;50.778;7.196;2023-05-10T12:27:50;18.60;99.90
9824;DHT22;4951;50.778;7.196;2023-05-10T12:33:55;18.50;99.90
9824;DHT22;4951;50.778;7.196;2023-05-10T12:40:45;18.30;99.90
9824;DHT22;4951;50.778;7.196;2023-05-10T12:44:07;18.20;1.00
9824;DHT22;4951;50.778;7.196;2023-05-10T12:47:49;18.20;1.00
9824;DHT22;4951;50.778;7.196;2023-05-10T12:50:58;18.30;99.90
9824;DHT22;4951;50.778;7.196;2023-05-10T12:54:23;18.30;27.50
9824;DHT22;4951;50.778;7.196;2023-05-10T12:58:09;18.30;1.00
9824;DHT22;4951;50.778;7.196;2023-05-10T13:01:29;18.30;1.00
9824;DHT22;4951;50.778;7.196;2023-05-10T13:04:27;18.30;1.00
9824;DHT22;4951;50.778;7.196;2023-05-10T13:12:36;18.30;1.00
9824;DHT22;4951;50.778;7.196;2023-05-10T14:08:51;15.60;99.90
9824;DHT22;4951;50.778;7.196;2023-05-10T14:12:11;15.70;99.90
9824;DHT22;4951;50.778;7.196;2023-05-10T14:15:07;15.60;99.90
9824;DHT22;4951;50.778;7.196;2023-05-10T14:18:17;15.60;99.90
9824;DHT22;4951;50.778;7.196;2023-05-10T14:21:06;15.60;99.90
9824;DHT22;4951;50.778;7.196;2023-05-10T14:24:12;15.70;99.90
9824;DHT22;4951;50.778;7.196;2023-05-10T14:40:20;15.90;99.90
9824;DHT22;4951;50.778;7.196;2023-05-10T14:43:19;15.80;99.90
9824;DHT22;4951;50.778;7.196;2023-05-10T14:46:02;15.70;1.00
9824;DHT22;4951;50.778;7.196;2023-05-10T14:49:11;15.60;1.00
9824;DHT22;4951;50.778;7.196;2023-05-10T14:53:11;15.50;1.00
9824;DHT22;4951;50.778;7.196;2023-05-10T14:56:14;15.50;1.00
9824;DHT22;4951;50.778;7.196;2023-05-10T14:59:15;15.40;1.00
9824;DHT22;4951;50.778;7.196;2023-05-10T15:02:37;15.30;1.00
9824;DHT22;4951;50.778;7.196;2023-05-10T15:05:21;15.30;1.00
9824;DHT22;4951;50.778;7.196;2023-05-10T15:07:56;15.40;1.00
9824;DHT22;4951;50.778;7.196;2023-05-10T15:11:21;15.40;1.00
9824;DHT22;4951;50.778;7.196;2023-05-10T15:13:54;15.50;1.00
9824;DHT22;4951;50.778;7.196;2023-05-10T15:17:28;15.80;1.00
9824;DHT22;4951;50.778;7.196;2023-05-10T15:20:37;17.10;25.00
9824;DHT22;4951;50.778;7.196;2023-05-10T15:23:14;18.10;1.00
9824;DHT22;4951;50.778;7.196;2023-05-10T15:36:51;18.90;1.00
9824;DHT22;4951;50.778;7.196;2023-05-10T15:40:24;19.40;99.90
9824;DHT22;4951;50.778;7.196;2023-05-10T15:43:27;18.90;1.00
9824;DHT22;4951;50.778;7.196;2023-05-10T15:52:49;19.30;99.90
9824;DHT22;4951;50.778;7.196;2023-05-10T15:56:07;18.70;1.00
9824;DHT22;4951;50.778;7.196;2023-05-10T15:59:02;18.00;99.90
9824;DHT22;4951;50.778;7.196;2023-05-10T16:01:48;17.40;1.00
9824;DHT22;4951;50.778;7.196;2023-05-10T16:04:50;17.00;1.00
9824;DHT22;4951;50.778;7.196;2023-05-10T16:07:32;16.70;99.90
9824;DHT22;4951;50.778;7.196;2023-05-10T16:10:22;16.40;99.90
9824;DHT22;4951;50.778;7.196;2023-05-10T16:12:52;16.20;99.90
9824;DHT22;4951;50.778;7.196;2023-05-10T16:15:24;16.10;99.90
9824;DHT22;4951;50.778;7.196;2023-05-10T16:18:07;16.00;99.90
9824;DHT22;4951;50.778;7.196;2023-05-10T16:20:55;15.90;1.00
9824;DHT22;4951;50.778;7.196;2023-05-10T16:23:42;15.80;1.00
9824;DHT22;4951;50.778;7.196;2023-05-10T16:26:12;15.70;1.00
9824;DHT22;4951;50.778;7.196;2023-05-10T16:28:48;15.60;1.00
9824;DHT22;4951;50.778;7.196;2023-05-10T16:31:57;15.50;1.00
9824;DHT22;4951;50.778;7.196;2023-05-10T16:34:53;15.40;1.00
9824;DHT22;4951;50.778;7.196;2023-05-10T16:38:00;15.40;1.00
9824;DHT22;4951;50.778;7.196;2023-05-10T16:40:59;15.40;1.00
9824;DHT22;4951;50.778;7.196;2023-05-10T16:47:05;15.40;1.00
9824;DHT22;4951;50.778;7.196;2023-05-10T16:50:44;15.50;1.00
9824;DHT22;4951;50.778;7.196;2023-05-10T16:54:27;15.60;1.00
9824;DHT22;4951;50.778;7.196;2023-05-10T17:05:49;15.80;1.00
9824;DHT22;4951;50.778;7.196;2023-05-10T17:09:19;15.80;1.00
9824;DHT22;4951;50.778;7.196;2023-05-10T17:12:20;15.80;1.00
9824;DHT22;4951;50.778;7.196;2023-05-10T17:15:00;15.80;1.00
9824;DHT22;4951;50.778;7.196;2023-05-10T17:18:55;15.80;1.00
9824;DHT22;4951;50.778;7.196;2023-05-10T17:22:12;15.80;1.00
9824;DHT22;4951;50.778;7.196;2023-05-10T17:25:54;15.90;1.00
9824;DHT22;4951;50.778;7.196;2023-05-10T17:29:00;15.90;1.00
9824;DHT22;4951;50.778;7.196;2023-05-10T17:32:33;15.90;1.00
9824;DHT22;4951;50.778;7.196;2023-05-10T17:35:39;16.00;1.00
9824;DHT22;4951;50.778;7.196;2023-05-10T17:38:41;16.00;1.00
9824;DHT22;4951;50.778;7.196;2023-05-10T17:41:40;15.90;1.00
9824;DHT22;4951;50.778;7.196;2023-05-10T17:44:08;15.80;1.00
9824;DHT22;4951;50.778;7.196;2023-05-10T17:46:39;15.80;99.90
9824;DHT22;4951;50.778;7.196;2023-05-10T17:49:13;15.70;99.90
9824;DHT22;4951;50.778;7.196;2023-05-10T17:52:21;15.60;99.90
9824;DHT22;4951;50.778;7.196;2023-05-10T17:55:33;15.60;99.90
9824;DHT22;4951;50.778;7.196;2023-05-10T17:59:29;15.50;99.90
9824;DHT22;4951;50.778;7.196;2023-05-10T18:12:13;15.50;99.90
9824;DHT22;4951;50.778;7.196;2023-05-10T18:15:00;15.40;99.90
9824;DHT22;4951;50.778;7.196;2023-05-10T18:17:35;15.30;99.90
9824;DHT22;4951;50.778;7.196;2023-05-10T18:20:37;15.20;99.90
9824;DHT22;4951;50.778;7.196;2023-05-10T18:24:10;15.20;99.90
9824;DHT22;4951;50.778;7.196;2023-05-10T18:31:01;14.90;99.90
9824;DHT22;4951;50.778;7.196;2023-05-10T18:34:10;14.80;99.90
9824;DHT22;4951;50.778;7.196;2023-05-10T18:40:46;14.60;99.90
9824;DHT22;4951;50.778;7.196;2023-05-10T18:43:36;14.50;99.90
9824;DHT22;4951;50.778;7.196;2023-05-10T18:57:04;14.40;1.00
9824;DHT22;4951;50.778;7.196;2023-05-10T19:07:39;14.20;1.00
9824;DHT22;4951;50.778;7.196;2023-05-10T19:17:21;14.00;1.00
9824;DHT22;4951;50.778;7.196;2023-05-10T19:23:50;13.80;1.00
9824;DHT22;4951;50.778;7.196;2023-05-10T19:26:43;13.80;1.00
9824;DHT22;4951;50.778;7.196;2023-05-10T19:29:26;13.80;1.00
9824;DHT22;4951;50.778;7.196;2023-05-10T19:32:58;13.80;1.00
9824;DHT22;4951;50.778;7.196;2023-05-10T19:35:43;13.80;1.00
9824;DHT22;4951;50.778;7.196;2023-05-10T19:38:47;13.80;1.00
9824;DHT22;4951;50.778;7.196;2023-05-10T19:42:14;13.80;1.00
9824;DHT22;4951;50.778;7.196;2023-05-10T19:45:27;13.80;1.00
9824;DHT22;4951;50.778;7.196;2023-05-10T19:48:25;13.80;1.00
9824;DHT22;4951;50.778;7.196;2023-05-10T19:51:38;13.80;1.00
9824;DHT22;4951;50.778;7.196;2023-05-10T19:54:56;13.80;1.00
9824;DHT22;4951;50.778;7.196;2023-05-10T19:57:44;13.80;1.00
9824;DHT22;4951;50.778;7.196;2023-05-10T20:01:10;13.80;1.00
9824;DHT22;4951;50.778;7.196;2023-05-10T20:04:54;13.80;1.00
9824;DHT22;4951;50.778;7.196;2023-05-10T20:08:43;13.80;1.00
9824;DHT22;4951;50.778;7.196;2023-05-10T20:11:29;13.80;1.00
9824;DHT22;4951;50.778;7.196;2023-05-10T20:14:26;13.70;1.00
9824;DHT22;4951;50.778;7.196;2023-05-10T20:17:25;13.70;1.00
9824;DHT22;4951;50.778;7.196;2023-05-10T20:20:39;13.60;1.00
9824;DHT22;4951;50.778;7.196;2023-05-10T20:23:38;13.40;1.00
9824;DHT22;4951;50.778;7.196;2023-05-10T20:27:37;13.40;1.00
9824;DHT22;4951;50.778;7.196;2023-05-10T20:30:51;13.20;1.00
9824;DHT22;4951;50.778;7.196;2023-05-10T20:34:18;13.20;1.00
9824;DHT22;4951;50.778;7.196;2023-05-10T20:37:20;13.10;1.00
9824;DHT22;4951;50.778;7.196;2023-05-10T20:45:11;13.00;1.00
9824;DHT22;4951;50.778;7.196;2023-05-10T20:48:38;13.00;1.00
9824;DHT22;4951;50.778;7.196;2023-05-10T20:51:37;13.00;1.00
9824;DHT22;4951;50.778;7.196;2023-05-10T20:54:41;13.00;1.00
9824;DHT22;4951;50.778;7.196;2023-05-10T20:58:25;13.00;1.00
9824;DHT22;4951;50.778;7.196;2023-05-10T21:01:34;13.10;1.00
9824;DHT22;4951;50.778;7.196;2023-05-10T21:04:19;13.10;1.00
9824;DHT22;4951;50.778;7.196;2023-05-10T21:07:24;13.10;1.00
9824;DHT22;4951;50.778;7.196;2023-05-10T21:10:09;13.10;1.00
9824;DHT22;4951;50.778;7.196;2023-05-10T21:12:47;13.10;1.00
9824;DHT22;4951;50.778;7.196;2023-05-10T21:17:00;13.10;1.00
9824;DHT22;4951;50.778;7.196;2023-05-10T21:31:46;13.10;1.00
9824;DHT22;4951;50.778;7.196;2023-05-10T21:35:01;13.20;1.00
9824;DHT22;4951;50.778;7.196;2023-05-10T21:38:11;13.10;1.00
9824;DHT22;4951;50.778;7.196;2023-05-10T21:41:26;13.10;1.00
9824;DHT22;4951;50.778;7.196;2023-05-10T21:44:46;13.10;1.00
9824;DHT22;4951;50.778;7.196;2023-05-10T21:48:07;13.10;1.00
9824;DHT22;4951;50.778;7.196;2023-05-10T22:02:11;13.00;1.00
9824;DHT22;4951;50.778;7.196;2023-05-10T22:05:23;13.00;1.00
9824;DHT22;4951;50.778;7.196;2023-05-10T22:08:06;12.90;1.00
9824;DHT22;4951;50.778;7.196;2023-05-10T22:11:12;12.90;1.00
9824;DHT22;4951;50.778;7.196;2023-05-10T22:14:16;12.90;13.70
9824;DHT22;4951;50.778;7.196;2023-05-10T22:17:07;12.90;51.20
9824;DHT22;4951;50.778;7.196;2023-05-10T22:20:11;12.90;88.90
9824;DHT22;4951;50.778;7.196;2023-05-10T22:24:02;12.80;99.90
9824;DHT22;4951;50.778;7.196;2023-05-10T22:26:58;12.80;99.90
9824;DHT22;4951;50.778;7.196;2023-05-10T22:29:52;12.70;99.90
9824;DHT22;4951;50.778;7.196;2023-05-10T22:36:18;12.70;99.90
9824;DHT22;4951;50.778;7.196;2023-05-10T22:42:26;12.70;99.90
9824;DHT22;4951;50.778;7.196;2023-05-10T22:45:36;12.70;99.90
9824;DHT22;4951;50.778;7.196;2023-05-10T22:56:37;12.70;99.90
9824;DHT22;4951;50.778;7.196;2023-05-10T22:59:51;12.70;99.90
9824;DHT22;4951;50.778;7.196;2023-05-10T23:03:27;12.70;99.90
9824;DHT22;4951;50.778;7.196;2023-05-10T23:07:33;12.70;99.90
9824;DHT22;4951;50.778;7.196;2023-05-10T23:15:36;12.50;1.00
9824;DHT22;4951;50.778;7.196;2023-05-10T23:22:32;12.50;1.00
9824;DHT22;4951;50.778;7.196;2023-05-10T23:25:42;12.40;1.00
9824;DHT22;4951;50.778;7.196;2023-05-10T23:28:36;12.40;1.00
9824;DHT22;4951;50.778;7.196;2023-05-10T23:35:48;12.40;1.00
9824;DHT22;4951;50.778;7.196;2023-05-10T23:38:31;12.40;1.00
9824;DHT22;4951;50.778;7.196;2023-05-10T23:41:39;12.30;1.00
9824;DHT22;4951;50.778;7.196;2023-05-10T23:48:19;12.30;1.00
9824;DHT22;4951;50.778;7.196;2023-05-10T23:51:01;12.20;1.00
